createdAt,value
2023-04-18T00:01:08.144Z,18.25
2023-04-18T00:03:38.352Z,18.75
2023-04-18T00:06:05.938Z,16.33
2023-04-18T00:08:34.194Z,15.52
2023-04-18T00:11:01.314Z,19.55
2023-04-18T00:13:28.548Z,18.38
2023-04-18T00:15:55.765Z,16.33
2023-04-18T00:18:26.677Z,17.63
2023-04-18T00:20:54.506Z,15.95
2023-04-18T00:23:22.517Z,18.35
2023-04-18T00:25:49.722Z,16.98
2023-04-18T00:28:16.877Z,17.83
2023-04-18T00:30:44.109Z,16.38
2023-04-18T00:33:11.321Z,18.08
2023-04-18T00:35:38.591Z,17.88
2023-04-18T00:38:05.904Z,17.70
2023-04-18T00:40:33.190Z,17.95
2023-04-18T00:43:00.659Z,15.35
2023-04-18T00:45:27.944Z,16.95
2023-04-18T00:47:56.298Z,16.65
2023-04-18T00:50:24.173Z,16.02
2023-04-18T00:52:52.137Z,18.58
2023-04-18T00:55:20.277Z,19.23
2023-04-18T00:57:47.454Z,18.88
2023-04-18T01:00:15.185Z,17.33
2023-04-18T01:02:42.616Z,17.30
2023-04-18T01:05:10.245Z,17.88
2023-04-18T01:07:41.755Z,19.83
2023-04-18T01:10:10.776Z,20.10
2023-04-18T01:12:37.990Z,18.05
2023-04-18T01:15:05.975Z,18.10
2023-04-18T01:17:35.556Z,16.58
2023-04-18T01:20:06.105Z,17.60
2023-04-18T01:22:33.809Z,19.05
2023-04-18T01:25:01.047Z,15.85
2023-04-18T01:27:28.236Z,18.38
2023-04-18T01:29:55.468Z,17.33
2023-04-18T01:32:22.710Z,16.85
2023-04-18T01:34:50.333Z,15.18
2023-04-18T01:37:17.761Z,16.58
2023-04-18T01:39:45.178Z,18.67
2023-04-18T01:42:12.302Z,16.67
2023-04-18T01:44:39.429Z,17.67
2023-04-18T01:47:06.542Z,16.65
2023-04-18T01:49:33.996Z,15.90
2023-04-18T01:52:01.228Z,16.10
2023-04-18T01:54:28.290Z,18.20
2023-04-18T01:56:55.453Z,16.60
2023-04-18T01:59:22.679Z,18.42
2023-04-18T02:01:49.929Z,15.20
2023-04-18T02:04:18.036Z,16.35
2023-04-18T02:06:46.898Z,16.08
2023-04-18T02:09:14.006Z,18.30
2023-04-18T02:11:43.250Z,17.33
2023-04-18T02:14:10.500Z,16.38
2023-04-18T02:16:38.890Z,13.77
2023-04-18T02:19:06.359Z,17.80
2023-04-18T02:21:33.592Z,18.08
2023-04-18T02:24:00.762Z,15.23
2023-04-18T02:26:27.920Z,17.02
2023-04-18T02:28:58.805Z,16.45
2023-04-18T02:31:26.054Z,16.27
2023-04-18T02:33:53.412Z,17.27
2023-04-18T02:36:22.230Z,17.63
2023-04-18T02:38:49.439Z,16.83
2023-04-18T02:41:19.966Z,18.67
2023-04-18T02:43:47.528Z,18.08
2023-04-18T02:46:16.649Z,16.30
2023-04-18T02:48:47.326Z,18.77
2023-04-18T02:51:15.913Z,17.60
2023-04-18T02:53:43.298Z,18.60
2023-04-18T02:56:10.677Z,16.00
2023-04-18T02:58:56.552Z,15.73
2023-04-18T03:01:37.656Z,18.52
2023-04-18T03:04:09.202Z,18.17
2023-04-18T03:06:40.442Z,19.88
2023-04-18T03:09:08.380Z,16.38
2023-04-18T03:11:39.128Z,17.08
2023-04-18T03:14:06.544Z,18.67
2023-04-18T03:16:41.513Z,19.40
2023-04-18T03:19:11.448Z,17.92
2023-04-18T03:21:38.777Z,16.55
2023-04-18T03:24:06.413Z,14.88
2023-04-18T03:26:35.275Z,16.33
2023-04-18T03:29:03.122Z,17.10
2023-04-18T03:31:30.902Z,16.88
2023-04-18T03:33:58.065Z,16.73
2023-04-18T03:36:28.909Z,18.35
2023-04-18T03:38:56.190Z,14.68
2023-04-18T03:41:24.469Z,18.23
2023-04-18T03:43:51.617Z,15.45
2023-04-18T03:46:19.223Z,16.40
2023-04-18T03:48:46.538Z,16.40
2023-04-18T03:51:14.605Z,15.93
2023-04-18T03:53:41.966Z,16.17
2023-04-18T03:56:09.125Z,17.20
2023-04-18T03:58:47.338Z,16.17
2023-04-18T04:01:14.757Z,14.68
2023-04-18T04:03:42.053Z,19.40
2023-04-18T04:06:09.780Z,17.83
2023-04-18T04:08:36.914Z,18.00
2023-04-18T04:11:04.153Z,18.52
2023-04-18T04:13:31.282Z,17.02
2023-04-18T04:15:58.582Z,17.60
2023-04-18T04:18:31.075Z,12.82
2023-04-18T04:21:00.543Z,17.90
2023-04-18T04:23:38.131Z,16.92
2023-04-18T04:26:05.441Z,16.67
2023-04-18T04:28:43.007Z,16.52
2023-04-18T04:31:11.524Z,16.92
2023-04-18T04:33:41.112Z,18.33
2023-04-18T04:36:18.812Z,18.15
2023-04-18T04:38:48.306Z,18.42
2023-04-18T04:41:16.564Z,16.80
2023-04-18T04:43:44.190Z,15.45
2023-04-18T04:46:20.382Z,15.98
2023-04-18T04:48:50.530Z,15.07
2023-04-18T04:51:19.100Z,16.20
2023-04-18T04:53:46.319Z,15.80
2023-04-18T04:56:13.737Z,18.92
2023-04-18T04:58:40.986Z,17.23
2023-04-18T05:01:18.936Z,18.05
2023-04-18T05:03:46.439Z,17.55
2023-04-18T05:06:20.490Z,15.93
2023-04-18T05:08:48.854Z,16.05
2023-04-18T05:11:17.000Z,18.60
2023-04-18T05:13:44.727Z,19.27
2023-04-18T05:16:12.267Z,18.13
2023-04-18T05:18:41.171Z,17.63
2023-04-18T05:21:08.353Z,19.50
2023-04-18T05:23:37.210Z,19.20
2023-04-18T05:26:05.928Z,18.17
2023-04-18T05:28:33.306Z,17.58
2023-04-18T05:31:03.074Z,18.73
2023-04-18T05:33:33.364Z,17.83
2023-04-18T05:36:00.868Z,19.33
2023-04-18T05:38:28.089Z,19.35
2023-04-18T05:40:55.959Z,19.52
2023-04-18T05:43:23.702Z,18.85
2023-04-18T05:45:52.594Z,17.77
2023-04-18T05:48:20.176Z,17.40
2023-04-18T05:50:47.438Z,18.35
2023-04-18T05:53:14.853Z,19.52
2023-04-18T05:55:42.208Z,19.63
2023-04-18T05:58:09.726Z,19.05
2023-04-18T06:00:36.860Z,19.08
2023-04-18T06:03:04.298Z,16.95
2023-04-18T06:05:31.909Z,18.95
2023-04-18T06:07:59.336Z,16.23
2023-04-18T06:10:26.532Z,19.92
2023-04-18T06:12:53.780Z,17.60
2023-04-18T06:15:21.013Z,18.60
2023-04-18T06:17:48.540Z,18.85
2023-04-18T06:20:15.873Z,16.95
2023-04-18T06:22:43.387Z,18.08
2023-04-18T06:25:10.849Z,19.08
2023-04-18T06:27:38.924Z,18.67
2023-04-18T06:30:16.683Z,20.02
2023-04-18T06:32:44.106Z,18.63
2023-04-18T06:35:11.635Z,19.55
2023-04-18T06:37:38.875Z,17.95
2023-04-18T06:40:06.628Z,18.58
2023-04-18T06:42:33.949Z,18.77
2023-04-18T06:45:01.366Z,18.23
2023-04-18T06:47:29.555Z,17.92
2023-04-18T06:49:56.905Z,18.40
2023-04-18T06:52:24.099Z,19.40
2023-04-18T06:54:53.770Z,17.90
2023-04-18T06:57:21.014Z,19.73
2023-04-18T06:59:48.212Z,20.70
2023-04-18T07:02:15.790Z,19.58
2023-04-18T07:04:43.135Z,18.33
2023-04-18T07:07:10.258Z,19.45
2023-04-18T07:09:37.358Z,19.33
2023-04-18T07:12:04.672Z,19.50
2023-04-18T07:14:34.068Z,19.77
2023-04-18T07:17:02.429Z,19.35
2023-04-18T07:19:29.698Z,19.00
2023-04-18T07:21:57.008Z,19.48
2023-04-18T07:24:25.425Z,19.15
2023-04-18T07:26:54.884Z,17.45
2023-04-18T07:29:22.478Z,18.38
2023-04-18T07:31:50.224Z,19.27
2023-04-18T07:34:17.977Z,20.02
2023-04-18T07:36:45.653Z,18.25
2023-04-18T07:39:12.874Z,18.00
2023-04-18T07:41:39.997Z,18.17
2023-04-18T07:44:07.504Z,19.73
2023-04-18T07:46:34.942Z,17.75
2023-04-18T07:49:02.554Z,18.98
2023-04-18T07:51:32.568Z,17.17
2023-04-18T07:53:59.948Z,16.92
2023-04-18T07:56:28.031Z,16.27
2023-04-18T07:58:55.790Z,16.88
2023-04-18T08:01:24.871Z,18.05
2023-04-18T08:03:54.156Z,17.38
2023-04-18T08:06:21.704Z,17.42
2023-04-18T08:08:49.360Z,16.67
2023-04-18T08:11:17.394Z,15.05
2023-04-18T08:13:45.474Z,14.30
2023-04-18T08:16:16.275Z,14.15
2023-04-18T08:18:45.047Z,14.25
2023-04-18T08:21:12.918Z,15.40
2023-04-18T08:23:41.040Z,15.88
2023-04-18T08:26:09.726Z,14.80
2023-04-18T08:28:38.291Z,15.43
2023-04-18T08:31:06.748Z,14.07
2023-04-18T08:33:34.206Z,13.77
2023-04-18T08:36:01.540Z,14.02
2023-04-18T08:38:28.798Z,14.07
2023-04-18T08:40:56.107Z,11.90
2023-04-18T08:43:24.592Z,12.10
2023-04-18T08:45:58.697Z,13.45
2023-04-18T08:48:27.960Z,12.90
2023-04-18T08:50:59.719Z,12.30
2023-04-18T08:53:27.379Z,12.57
2023-04-18T08:55:56.442Z,12.18
2023-04-18T08:58:25.732Z,13.68
2023-04-18T09:00:54.070Z,11.35
2023-04-18T09:03:41.943Z,11.68
2023-04-18T09:06:09.726Z,11.82
2023-04-18T09:08:37.219Z,12.10
2023-04-18T09:11:29.225Z,11.07
2023-04-18T09:14:10.617Z,11.45
2023-04-18T09:16:47.299Z,10.32
2023-04-18T09:19:18.722Z,9.82
2023-04-18T09:21:48.927Z,10.82
2023-04-18T09:24:28.504Z,10.10
2023-04-18T09:26:57.808Z,8.98
2023-04-18T09:29:47.272Z,10.60
2023-04-18T09:32:25.191Z,9.05
2023-04-18T09:34:58.382Z,8.82
2023-04-18T09:37:26.732Z,8.88
2023-04-18T09:53:07.049Z,8.52
2023-04-18T09:55:35.243Z,7.60
2023-04-18T09:58:04.845Z,8.38
2023-04-18T10:00:34.021Z,9.02
2023-04-18T10:03:09.814Z,8.60
2023-04-18T10:05:41.244Z,10.32
2023-04-18T10:08:09.569Z,10.23
2023-04-18T10:10:38.818Z,9.38
2023-04-18T10:13:11.720Z,9.70
2023-04-18T10:15:39.179Z,8.45
2023-04-18T10:18:11.120Z,7.72
2023-04-18T10:20:41.447Z,8.43
2023-04-18T10:23:36.173Z,7.32
2023-04-18T10:26:07.625Z,7.40
2023-04-18T10:28:55.136Z,7.65
2023-04-18T10:31:27.527Z,7.85
2023-04-18T10:36:28.663Z,8.23
2023-04-18T10:39:23.129Z,7.05
2023-04-18T10:41:52.470Z,7.90
2023-04-18T10:44:23.038Z,7.05
2023-04-18T10:46:53.591Z,7.07
2023-04-18T10:49:32.045Z,6.60
2023-04-18T10:52:01.877Z,6.68
2023-04-18T10:54:33.196Z,6.85
2023-04-18T10:57:03.096Z,6.97
2023-04-18T10:59:31.983Z,6.13
2023-04-18T11:02:14.455Z,5.97
2023-04-18T11:07:08.785Z,5.40
2023-04-18T11:09:36.024Z,6.07
2023-04-18T11:12:09.042Z,6.13
2023-04-18T11:14:52.020Z,5.57
2023-04-18T11:17:24.417Z,5.40
2023-04-18T11:20:18.679Z,5.28
2023-04-18T11:22:52.766Z,4.93
2023-04-18T11:25:23.730Z,5.30
2023-04-18T11:27:57.361Z,5.10
2023-04-18T11:30:24.892Z,4.40
2023-04-18T11:32:52.532Z,4.97
2023-04-18T11:35:19.910Z,4.38
2023-04-18T11:37:47.120Z,5.68
2023-04-18T11:40:14.434Z,5.43
2023-04-18T11:42:42.439Z,5.10
2023-04-18T11:45:13.983Z,6.40
2023-04-18T11:47:43.178Z,5.45
2023-04-18T11:50:12.905Z,6.68
2023-04-18T11:52:42.456Z,7.15
2023-04-18T11:55:21.802Z,7.32
2023-04-18T11:57:56.390Z,6.60
2023-04-18T12:00:41.758Z,6.88
2023-04-18T12:03:16.794Z,7.25
2023-04-18T12:05:44.954Z,5.70
2023-04-18T12:08:17.372Z,6.30
2023-04-18T12:10:51.956Z,8.00
2023-04-18T12:13:27.152Z,7.45
2023-04-18T12:15:54.662Z,8.30
2023-04-18T12:18:24.655Z,8.13
2023-04-18T12:20:54.318Z,8.93
2023-04-18T12:23:42.901Z,7.95
2023-04-18T12:26:15.222Z,8.68
2023-04-18T12:31:11.965Z,5.80
2023-04-18T12:33:39.213Z,8.18
2023-04-18T12:36:08.454Z,7.55
2023-04-18T12:38:36.062Z,6.93
2023-04-18T12:41:03.188Z,6.72
2023-04-18T12:43:30.432Z,7.65
2023-04-18T12:45:57.911Z,6.95
2023-04-18T12:48:24.995Z,6.68
2023-04-18T12:50:52.146Z,6.18
2023-04-18T12:53:19.438Z,6.07
2023-04-18T12:55:46.631Z,5.50
2023-04-18T12:58:18.573Z,7.03
2023-04-18T13:00:46.262Z,6.40
2023-04-18T13:03:13.753Z,6.85
2023-04-18T13:05:41.163Z,5.10
2023-04-18T13:08:16.334Z,5.65
2023-04-18T13:10:45.773Z,4.95
2023-04-18T13:13:13.188Z,5.20
2023-04-18T13:15:40.593Z,6.03
2023-04-18T13:18:08.017Z,6.78
2023-04-18T13:20:35.825Z,5.35
2023-04-18T13:23:03.795Z,5.60
2023-04-18T13:25:31.374Z,4.50
2023-04-18T13:27:59.142Z,5.20
2023-04-18T13:30:26.408Z,4.25
2023-04-18T13:32:55.009Z,4.18
2023-04-18T13:35:22.300Z,5.25
2023-04-18T13:37:49.640Z,4.47
2023-04-18T13:40:16.779Z,4.88
2023-04-18T13:42:44.028Z,4.95
2023-04-18T13:45:11.402Z,4.38
2023-04-18T13:47:39.558Z,4.47
2023-04-18T13:50:07.532Z,5.03
2023-04-18T13:52:35.379Z,3.53
2023-04-18T13:55:02.492Z,4.47
2023-04-18T13:57:32.243Z,4.40
2023-04-18T13:59:59.979Z,4.43
2023-04-18T14:02:27.526Z,3.83
2023-04-18T14:04:55.134Z,4.45
2023-04-18T14:07:22.575Z,3.97
2023-04-18T14:09:50.501Z,4.15
2023-04-18T14:12:18.854Z,4.30
2023-04-18T14:14:46.016Z,3.97
2023-04-18T14:17:13.417Z,3.53
2023-04-18T14:19:40.650Z,4.75
2023-04-18T14:22:08.025Z,3.30
2023-04-18T14:24:36.425Z,3.80
2023-04-18T14:27:04.064Z,3.20
2023-04-18T14:29:31.358Z,4.32
2023-04-18T14:31:59.186Z,3.88
2023-04-18T14:34:26.642Z,3.38
2023-04-18T14:36:54.027Z,3.50
2023-04-18T14:39:21.810Z,4.28
2023-04-18T14:41:49.184Z,5.00
2023-04-18T14:44:17.365Z,4.68
2023-04-18T14:46:44.749Z,4.57
2023-04-18T14:49:12.490Z,4.93
2023-04-18T14:51:40.127Z,5.03
2023-04-18T14:54:07.311Z,4.68
2023-04-18T14:56:34.710Z,4.28
2023-04-18T14:59:02.632Z,4.68
2023-04-18T15:01:30.016Z,4.97
2023-04-18T15:03:57.449Z,4.65
2023-04-18T15:06:24.778Z,4.80
2023-04-18T15:08:52.837Z,4.82
2023-04-18T15:11:20.297Z,5.28
2023-04-18T15:13:47.729Z,6.00
2023-04-18T15:16:14.943Z,5.57
2023-04-18T15:18:43.582Z,5.25
2023-04-18T15:21:11.157Z,6.10
2023-04-18T15:23:38.284Z,5.90
2023-04-18T15:26:06.451Z,6.40
2023-04-18T15:28:33.819Z,6.93
2023-04-18T15:31:01.009Z,7.38
2023-04-18T15:33:28.393Z,7.38
2023-04-18T15:35:55.860Z,6.95
2023-04-18T15:38:23.193Z,7.95
2023-04-18T15:40:51.157Z,8.18
2023-04-18T15:43:18.497Z,8.90
2023-04-18T15:45:47.063Z,8.15
2023-04-18T15:48:14.485Z,7.60
2023-04-18T15:50:42.491Z,9.98
2023-04-18T15:53:09.871Z,9.05
2023-04-18T15:55:37.170Z,9.10
2023-04-18T15:58:04.405Z,10.27
2023-04-18T16:00:31.676Z,10.90
2023-04-18T16:02:59.039Z,10.77
2023-04-18T16:05:26.564Z,11.60
2023-04-18T16:07:56.185Z,12.07
2023-04-18T16:10:23.813Z,10.85
2023-04-18T16:12:51.042Z,12.50
2023-04-18T16:15:18.735Z,12.43
2023-04-18T16:17:46.406Z,12.38
2023-04-18T16:20:13.878Z,11.27
2023-04-18T16:22:41.158Z,11.90
2023-04-18T16:25:09.199Z,12.07
2023-04-18T16:27:36.355Z,10.50
2023-04-18T16:30:05.312Z,13.35
2023-04-18T16:32:32.923Z,11.48
2023-04-18T16:35:00.640Z,11.50
2023-04-18T16:37:28.028Z,12.30
2023-04-18T16:39:55.271Z,12.88
2023-04-18T16:42:22.578Z,13.82
2023-04-18T16:44:49.797Z,12.65
2023-04-18T16:47:16.998Z,12.05
2023-04-18T16:49:46.655Z,10.85
2023-04-18T16:52:14.716Z,11.32
2023-04-18T16:54:41.933Z,16.42
2023-04-18T16:57:09.333Z,12.75
2023-04-18T16:59:36.674Z,13.07
2023-04-18T17:02:04.530Z,12.77
2023-04-18T17:04:31.946Z,12.70
2023-04-18T17:06:59.424Z,13.57
2023-04-18T17:09:26.580Z,11.18
2023-04-18T17:11:53.784Z,10.45
2023-04-18T17:14:20.871Z,13.18
2023-04-18T17:16:49.136Z,12.07
2023-04-18T17:19:17.372Z,11.95
2023-04-18T17:21:44.646Z,12.35
2023-04-18T17:24:11.897Z,10.60
2023-04-18T17:26:39.312Z,11.77
2023-04-18T17:29:06.500Z,11.90
2023-04-18T17:31:34.130Z,10.23
2023-04-18T17:34:01.387Z,12.13
2023-04-18T17:36:28.544Z,12.95
2023-04-18T17:38:56.169Z,11.60
2023-04-18T17:41:23.288Z,11.07
2023-04-18T17:43:53.675Z,11.43
2023-04-18T17:46:21.014Z,11.50
2023-04-18T17:48:48.316Z,10.48
2023-04-18T17:51:19.372Z,11.73
2023-04-18T17:53:47.051Z,10.48
2023-04-18T17:56:14.227Z,11.52
2023-04-18T17:58:41.427Z,10.65
2023-04-18T18:01:19.924Z,10.77
2023-04-18T18:03:48.386Z,12.00
2023-04-18T18:06:16.199Z,10.98
2023-04-18T18:08:43.876Z,10.98
2023-04-18T18:11:11.241Z,11.07
2023-04-18T18:13:41.138Z,12.25
2023-04-18T18:16:09.069Z,10.90
2023-04-18T18:18:37.106Z,10.63
2023-04-18T18:21:04.426Z,10.10
2023-04-18T18:23:31.683Z,10.25
2023-04-18T18:25:58.890Z,10.23
2023-04-18T18:28:26.071Z,10.60
2023-04-18T18:30:54.088Z,9.70
2023-04-18T18:33:21.342Z,10.65
2023-04-18T18:35:48.500Z,9.55
2023-04-18T18:38:15.724Z,10.07
2023-04-18T18:40:43.309Z,9.40
2023-04-18T18:43:10.850Z,9.55
2023-04-18T18:45:38.772Z,11.30
2023-04-18T18:48:10.167Z,9.38
2023-04-18T18:50:37.680Z,8.95
2023-04-18T18:53:06.200Z,9.48
2023-04-18T18:55:33.473Z,9.57
2023-04-18T18:58:00.903Z,9.98
2023-04-18T19:00:28.259Z,10.25
2023-04-18T19:02:55.884Z,10.88
2023-04-18T19:05:23.296Z,11.10
2023-04-18T19:07:51.579Z,9.38
2023-04-18T19:10:18.848Z,10.25
2023-04-18T19:12:46.480Z,10.40
2023-04-18T19:15:13.902Z,9.43
2023-04-18T19:17:41.667Z,9.50
2023-04-18T19:20:09.295Z,11.63
2023-04-18T19:22:37.476Z,10.85
2023-04-18T19:25:05.143Z,9.65
2023-04-18T19:27:32.325Z,9.55
2023-04-18T19:29:59.417Z,9.35
2023-04-18T19:32:26.954Z,10.48
2023-04-18T19:34:54.783Z,9.40
2023-04-18T19:37:22.382Z,11.60
2023-04-18T19:39:49.627Z,9.80
2023-04-18T19:42:16.740Z,9.05
2023-04-18T19:44:44.340Z,10.45
2023-04-18T19:47:11.501Z,10.43
2023-04-18T19:49:38.739Z,10.18
2023-04-18T19:52:06.438Z,12.13
2023-04-18T19:54:33.699Z,10.10
2023-04-18T19:57:01.488Z,10.80
2023-04-18T19:59:28.711Z,11.13
2023-04-18T20:01:57.219Z,10.43
2023-04-18T20:04:26.122Z,11.20
2023-04-18T20:06:56.309Z,10.93
2023-04-18T20:09:23.526Z,9.60
2023-04-18T20:11:50.737Z,10.13
2023-04-18T20:14:18.085Z,10.18
2023-04-18T20:16:46.660Z,11.63
2023-04-18T20:19:14.911Z,11.63
2023-04-18T20:21:42.357Z,10.50
2023-04-18T20:24:09.763Z,12.13
2023-04-18T20:26:37.228Z,9.48
2023-04-18T20:29:04.450Z,9.80
2023-04-18T20:31:31.590Z,10.90
2023-04-18T20:33:58.740Z,9.27
2023-04-18T20:36:25.929Z,8.82
2023-04-18T20:38:53.192Z,10.35
2023-04-18T20:41:24.225Z,11.07
2023-04-18T20:43:53.809Z,11.30
2023-04-18T20:46:21.080Z,10.85
2023-04-18T20:48:48.374Z,9.82
2023-04-18T20:51:15.973Z,10.80
2023-04-18T20:53:43.197Z,10.35
2023-04-18T20:56:10.460Z,9.25
2023-04-18T20:58:37.783Z,10.70
2023-04-18T21:01:05.210Z,12.40
2023-04-18T21:03:32.613Z,11.45
2023-04-18T21:05:59.907Z,11.85
2023-04-18T21:08:27.053Z,11.50
2023-04-18T21:10:54.252Z,11.50
2023-04-18T21:13:21.575Z,9.43
2023-04-18T21:15:51.952Z,11.55
2023-04-18T21:18:19.736Z,10.77
2023-04-18T21:20:46.982Z,10.35
2023-04-18T21:23:14.347Z,13.85
2023-04-18T21:25:41.878Z,10.50
2023-04-18T21:28:09.269Z,11.80
2023-04-18T21:30:36.806Z,10.90
2023-04-18T21:33:04.431Z,11.88
2023-04-18T21:35:32.066Z,11.85
2023-04-18T21:37:59.381Z,11.73
2023-04-18T21:40:27.046Z,12.02
2023-04-18T21:42:54.228Z,12.35
2023-04-18T21:45:21.681Z,12.13
2023-04-18T21:47:49.764Z,11.98
2023-04-18T21:50:16.983Z,13.25
2023-04-18T21:52:44.201Z,10.80
2023-04-18T21:55:11.436Z,10.40
2023-04-18T21:57:38.590Z,13.90
2023-04-18T22:00:09.283Z,11.55
2023-04-18T22:02:40.649Z,12.65
2023-04-18T22:05:09.123Z,12.00
2023-04-18T22:07:50.120Z,12.23
2023-04-18T22:10:25.098Z,13.85
2023-04-18T22:12:55.291Z,11.60
2023-04-18T22:15:23.791Z,12.25
2023-04-18T22:17:52.114Z,11.77
2023-04-18T22:20:19.255Z,11.50
2023-04-18T22:22:46.330Z,10.73
2023-04-18T22:25:13.541Z,10.80
2023-04-18T22:27:40.837Z,11.73
2023-04-18T22:30:08.821Z,11.98
2023-04-18T22:32:36.088Z,12.13
2023-04-18T22:35:04.132Z,9.77
2023-04-18T22:37:31.365Z,12.18
2023-04-18T22:39:58.661Z,11.15
2023-04-18T22:42:25.926Z,11.98
2023-04-18T22:44:53.150Z,10.38
2023-04-18T22:47:20.321Z,11.30
2023-04-18T22:49:47.462Z,10.48
2023-04-18T22:52:15.612Z,11.32
2023-04-18T22:54:42.791Z,11.38
2023-04-18T22:57:09.961Z,11.48
2023-04-18T22:59:37.221Z,12.82
2023-04-18T23:02:04.602Z,12.32
2023-04-18T23:04:33.089Z,11.60
2023-04-18T23:07:00.444Z,12.27
2023-04-18T23:09:27.728Z,13.43
2023-04-18T23:11:54.865Z,12.98
2023-04-18T23:14:22.667Z,11.85
2023-04-18T23:16:49.892Z,11.95
2023-04-18T23:19:17.106Z,12.25
2023-04-18T23:21:44.469Z,12.77
2023-04-18T23:24:12.346Z,12.88
2023-04-18T23:26:40.520Z,12.93
2023-04-18T23:29:07.827Z,12.82
2023-04-18T23:31:35.301Z,12.02
2023-04-18T23:34:02.547Z,11.50
2023-04-18T23:36:29.851Z,13.25
2023-04-18T23:38:57.345Z,12.65
2023-04-18T23:41:24.577Z,13.38
2023-04-18T23:43:51.697Z,12.15
2023-04-18T23:46:19.033Z,11.63
2023-04-18T23:48:46.281Z,12.20
2023-04-18T23:51:13.450Z,14.65
2023-04-18T23:53:40.591Z,12.50
2023-04-18T23:56:07.958Z,14.15
2023-04-18T23:58:35.107Z,13.45
